Chualar, California
Current Conditions -  °F | °C
As of 5:02 PM on Saturday 22 Nov 2014 (Local Time) from KSNS Reporting Station
Broken Clouds Broken Clouds  
Wind Chill: 63°   Ceiling: 1400
Heat Index: 63°   Visibility: 9mi
Dew Point: 57°   Wind: 3mph
Humidity: 82%   Direction: 250°WSW
Pressure: 30.15"   Gusts: NA
Location:  36.57°N, 121.52°W
Report Text: KSNS 230102Z 25003KT 9SM BKN014 BKN020 17/14 A3015 RMK AO2
Loading
Personal Weather Stations






























Interactive Weather Map New forecast layout! Learn more

10-Day Weather Forecast

Advertisements
Track Severe Weather on mobile